sensor_id;sensor_type;location;lat;lon;timestamp;temperature;humidity
2723;DHT22;1369;53.216;10.396;2023-04-10T00:02:08;5.50;99.90
2723;DHT22;1369;53.216;10.396;2023-04-10T00:04:34;5.50;99.90
2723;DHT22;1369;53.216;10.396;2023-04-10T00:06:59;5.40;99.90
2723;DHT22;1369;53.216;10.396;2023-04-10T00:09:25;5.40;99.90
2723;DHT22;1369;53.216;10.396;2023-04-10T00:11:51;5.40;99.90
2723;DHT22;1369;53.216;10.396;2023-04-10T00:14:17;5.30;99.90
2723;DHT22;1369;53.216;10.396;2023-04-10T00:16:48;5.30;99.90
2723;DHT22;1369;53.216;10.396;2023-04-10T00:19:13;5.20;99.90
2723;DHT22;1369;53.216;10.396;2023-04-10T00:21:39;5.20;99.90
2723;DHT22;1369;53.216;10.396;2023-04-10T00:24:04;5.20;99.90
2723;DHT22;1369;53.216;10.396;2023-04-10T00:26:30;5.20;99.90
2723;DHT22;1369;53.216;10.396;2023-04-10T00:28:56;5.20;99.90
2723;DHT22;1369;53.216;10.396;2023-04-10T00:31:21;5.20;99.90
2723;DHT22;1369;53.216;10.396;2023-04-10T00:33:47;5.20;99.90
2723;DHT22;1369;53.216;10.396;2023-04-10T00:36:12;5.10;99.90
2723;DHT22;1369;53.216;10.396;2023-04-10T00:38:38;5.10;99.90
2723;DHT22;1369;53.216;10.396;2023-04-10T00:41:03;5.10;99.90
2723;DHT22;1369;53.216;10.396;2023-04-10T00:43:30;5.00;99.90
2723;DHT22;1369;53.216;10.396;2023-04-10T00:45:55;4.90;99.90
2723;DHT22;1369;53.216;10.396;2023-04-10T00:48:21;4.90;99.90
2723;DHT22;1369;53.216;10.396;2023-04-10T00:50:46;4.90;99.90
2723;DHT22;1369;53.216;10.396;2023-04-10T00:53:12;4.90;99.90
2723;DHT22;1369;53.216;10.396;2023-04-10T00:55:38;4.90;99.90
2723;DHT22;1369;53.216;10.396;2023-04-10T00:58:03;4.80;99.90
2723;DHT22;1369;53.216;10.396;2023-04-10T01:00:29;4.80;99.90
2723;DHT22;1369;53.216;10.396;2023-04-10T01:02:55;4.80;99.90
2723;DHT22;1369;53.216;10.396;2023-04-10T01:05:21;4.70;99.90
2723;DHT22;1369;53.216;10.396;2023-04-10T01:08:54;4.70;99.90
2723;DHT22;1369;53.216;10.396;2023-04-10T01:11:07;4.70;99.90
2723;DHT22;1369;53.216;10.396;2023-04-10T01:13:42;4.70;99.90
2723;DHT22;1369;53.216;10.396;2023-04-10T01:16:19;4.60;99.90
2723;DHT22;1369;53.216;10.396;2023-04-10T01:18:52;4.70;99.90
2723;DHT22;1369;53.216;10.396;2023-04-10T01:21:20;4.70;99.90
2723;DHT22;1369;53.216;10.396;2023-04-10T01:24:03;4.70;99.90
2723;DHT22;1369;53.216;10.396;2023-04-10T01:29:35;4.60;99.90
2723;DHT22;1369;53.216;10.396;2023-04-10T01:32:12;4.50;99.90
2723;DHT22;1369;53.216;10.396;2023-04-10T01:34:44;4.60;99.90
2723;DHT22;1369;53.216;10.396;2023-04-10T01:37:16;4.60;99.90
2723;DHT22;1369;53.216;10.396;2023-04-10T01:39:47;4.50;99.90
2723;DHT22;1369;53.216;10.396;2023-04-10T01:42:14;4.50;99.90
2723;DHT22;1369;53.216;10.396;2023-04-10T01:44:41;4.50;99.90
2723;DHT22;1369;53.216;10.396;2023-04-10T01:47:08;4.40;99.90
2723;DHT22;1369;53.216;10.396;2023-04-10T01:49:34;4.40;99.90
2723;DHT22;1369;53.216;10.396;2023-04-10T01:52:02;4.40;99.90
2723;DHT22;1369;53.216;10.396;2023-04-10T01:54:30;4.30;99.90
2723;DHT22;1369;53.216;10.396;2023-04-10T01:56:58;4.30;99.90
2723;DHT22;1369;53.216;10.396;2023-04-10T01:59:24;4.40;99.90
2723;DHT22;1369;53.216;10.396;2023-04-10T02:01:58;4.40;99.90
2723;DHT22;1369;53.216;10.396;2023-04-10T02:04:25;4.40;99.90
2723;DHT22;1369;53.216;10.396;2023-04-10T02:07:03;4.40;99.90
2723;DHT22;1369;53.216;10.396;2023-04-10T02:12:27;4.30;99.90
2723;DHT22;1369;53.216;10.396;2023-04-10T02:14:55;4.30;99.90
2723;DHT22;1369;53.216;10.396;2023-04-10T02:17:26;4.20;99.90
2723;DHT22;1369;53.216;10.396;2023-04-10T02:19:54;4.20;99.90
2723;DHT22;1369;53.216;10.396;2023-04-10T02:22:20;4.20;99.90
2723;DHT22;1369;53.216;10.396;2023-04-10T02:24:47;4.20;99.90
2723;DHT22;1369;53.216;10.396;2023-04-10T02:27:12;4.20;99.90
2723;DHT22;1369;53.216;10.396;2023-04-10T02:29:38;4.20;99.90
2723;DHT22;1369;53.216;10.396;2023-04-10T02:32:05;4.20;99.90
2723;DHT22;1369;53.216;10.396;2023-04-10T02:34:30;4.10;99.90
2723;DHT22;1369;53.216;10.396;2023-04-10T02:36:56;4.10;99.90
2723;DHT22;1369;53.216;10.396;2023-04-10T02:39:21;4.10;99.90
2723;DHT22;1369;53.216;10.396;2023-04-10T02:41:47;4.10;99.90
2723;DHT22;1369;53.216;10.396;2023-04-10T02:44:13;4.10;99.90
2723;DHT22;1369;53.216;10.396;2023-04-10T02:46:38;4.10;99.90
2723;DHT22;1369;53.216;10.396;2023-04-10T02:49:04;4.10;99.90
2723;DHT22;1369;53.216;10.396;2023-04-10T02:51:33;4.10;99.90
2723;DHT22;1369;53.216;10.396;2023-04-10T02:53:59;4.10;99.90
2723;DHT22;1369;53.216;10.396;2023-04-10T02:56:25;4.10;99.90
2723;DHT22;1369;53.216;10.396;2023-04-10T02:58:51;4.10;99.90
2723;DHT22;1369;53.216;10.396;2023-04-10T03:01:16;4.10;99.90
2723;DHT22;1369;53.216;10.396;2023-04-10T03:03:42;4.10;99.90
2723;DHT22;1369;53.216;10.396;2023-04-10T03:06:08;4.10;99.90
2723;DHT22;1369;53.216;10.396;2023-04-10T03:08:34;4.00;99.90
2723;DHT22;1369;53.216;10.396;2023-04-10T03:11:00;4.10;99.90
2723;DHT22;1369;53.216;10.396;2023-04-10T03:13:26;4.20;99.90
2723;DHT22;1369;53.216;10.396;2023-04-10T03:15:51;4.20;99.90
2723;DHT22;1369;53.216;10.396;2023-04-10T03:18:17;4.20;99.90
2723;DHT22;1369;53.216;10.396;2023-04-10T03:20:42;4.20;99.90
2723;DHT22;1369;53.216;10.396;2023-04-10T03:23:08;4.20;99.90
2723;DHT22;1369;53.216;10.396;2023-04-10T03:25:34;4.10;99.90
2723;DHT22;1369;53.216;10.396;2023-04-10T03:27:59;4.10;99.90
2723;DHT22;1369;53.216;10.396;2023-04-10T03:30:25;4.00;99.90
2723;DHT22;1369;53.216;10.396;2023-04-10T03:32:50;4.00;99.90
2723;DHT22;1369;53.216;10.396;2023-04-10T03:35:16;4.00;99.90
2723;DHT22;1369;53.216;10.396;2023-04-10T03:37:41;3.90;99.90
2723;DHT22;1369;53.216;10.396;2023-04-10T03:40:08;3.90;99.90
2723;DHT22;1369;53.216;10.396;2023-04-10T03:42:34;3.90;99.90
2723;DHT22;1369;53.216;10.396;2023-04-10T03:45:00;3.90;99.90
2723;DHT22;1369;53.216;10.396;2023-04-10T03:47:29;3.90;99.90
2723;DHT22;1369;53.216;10.396;2023-04-10T03:49:55;3.90;99.90
2723;DHT22;1369;53.216;10.396;2023-04-10T03:52:20;3.80;99.90
2723;DHT22;1369;53.216;10.396;2023-04-10T03:54:46;3.80;99.90
2723;DHT22;1369;53.216;10.396;2023-04-10T03:57:12;3.80;99.90
2723;DHT22;1369;53.216;10.396;2023-04-10T03:59:37;3.70;99.90
2723;DHT22;1369;53.216;10.396;2023-04-10T04:02:03;3.70;99.90
2723;DHT22;1369;53.216;10.396;2023-04-10T04:04:28;3.60;99.90
2723;DHT22;1369;53.216;10.396;2023-04-10T04:06:55;3.60;99.90
2723;DHT22;1369;53.216;10.396;2023-04-10T04:09:21;3.70;99.90
2723;DHT22;1369;53.216;10.396;2023-04-10T04:11:46;3.60;99.90
2723;DHT22;1369;53.216;10.396;2023-04-10T04:14:12;3.60;99.90
2723;DHT22;1369;53.216;10.396;2023-04-10T04:16:37;3.60;99.90
2723;DHT22;1369;53.216;10.396;2023-04-10T04:19:03;3.60;99.90
2723;DHT22;1369;53.216;10.396;2023-04-10T04:21:28;3.50;99.90
2723;DHT22;1369;53.216;10.396;2023-04-10T04:23:53;3.50;99.90
2723;DHT22;1369;53.216;10.396;2023-04-10T04:26:19;3.60;99.90
2723;DHT22;1369;53.216;10.396;2023-04-10T04:28:45;3.60;99.90
2723;DHT22;1369;53.216;10.396;2023-04-10T04:31:11;3.60;99.90
2723;DHT22;1369;53.216;10.396;2023-04-10T04:33:37;3.60;99.90
2723;DHT22;1369;53.216;10.396;2023-04-10T04:36:02;3.60;99.90
2723;DHT22;1369;53.216;10.396;2023-04-10T04:38:28;3.70;99.90
2723;DHT22;1369;53.216;10.396;2023-04-10T04:40:53;3.60;99.90
2723;DHT22;1369;53.216;10.396;2023-04-10T04:43:19;3.60;99.90
2723;DHT22;1369;53.216;10.396;2023-04-10T04:45:45;3.70;99.90
2723;DHT22;1369;53.216;10.396;2023-04-10T04:48:11;3.70;99.90
2723;DHT22;1369;53.216;10.396;2023-04-10T04:50:39;3.70;99.90
2723;DHT22;1369;53.216;10.396;2023-04-10T04:53:05;3.70;99.90
2723;DHT22;1369;53.216;10.396;2023-04-10T04:55:30;3.70;99.90
2723;DHT22;1369;53.216;10.396;2023-04-10T04:57:56;3.80;99.90
2723;DHT22;1369;53.216;10.396;2023-04-10T05:00:22;3.80;99.90
2723;DHT22;1369;53.216;10.396;2023-04-10T05:02:47;3.90;99.90
2723;DHT22;1369;53.216;10.396;2023-04-10T05:05:12;3.90;99.90
2723;DHT22;1369;53.216;10.396;2023-04-10T05:07:38;3.90;99.90
2723;DHT22;1369;53.216;10.396;2023-04-10T05:10:04;4.00;99.90
2723;DHT22;1369;53.216;10.396;2023-04-10T05:12:30;4.10;99.90
2723;DHT22;1369;53.216;10.396;2023-04-10T05:14:56;4.20;99.90
2723;DHT22;1369;53.216;10.396;2023-04-10T05:17:21;4.30;99.90
2723;DHT22;1369;53.216;10.396;2023-04-10T05:19:46;4.30;99.90
2723;DHT22;1369;53.216;10.396;2023-04-10T05:22:12;4.40;99.90
2723;DHT22;1369;53.216;10.396;2023-04-10T05:24:37;4.50;99.90
2723;DHT22;1369;53.216;10.396;2023-04-10T05:27:03;4.50;99.90
2723;DHT22;1369;53.216;10.396;2023-04-10T05:29:28;4.60;99.90
2723;DHT22;1369;53.216;10.396;2023-04-10T05:31:54;4.60;99.90
2723;DHT22;1369;53.216;10.396;2023-04-10T05:34:20;4.70;99.90
2723;DHT22;1369;53.216;10.396;2023-04-10T05:36:45;4.70;99.90
2723;DHT22;1369;53.216;10.396;2023-04-10T05:39:11;4.80;99.90
2723;DHT22;1369;53.216;10.396;2023-04-10T05:41:37;4.80;99.90
2723;DHT22;1369;53.216;10.396;2023-04-10T05:44:03;4.90;99.90
2723;DHT22;1369;53.216;10.396;2023-04-10T05:46:28;5.00;99.90
2723;DHT22;1369;53.216;10.396;2023-04-10T05:48:54;5.10;99.90
2723;DHT22;1369;53.216;10.396;2023-04-10T05:51:19;5.20;99.90
2723;DHT22;1369;53.216;10.396;2023-04-10T05:53:45;5.30;99.90
2723;DHT22;1369;53.216;10.396;2023-04-10T05:56:10;5.40;99.90
2723;DHT22;1369;53.216;10.396;2023-04-10T05:58:36;5.40;99.90
2723;DHT22;1369;53.216;10.396;2023-04-10T06:01:01;5.60;99.90
2723;DHT22;1369;53.216;10.396;2023-04-10T06:03:27;5.70;99.90
2723;DHT22;1369;53.216;10.396;2023-04-10T06:05:54;5.80;99.90
2723;DHT22;1369;53.216;10.396;2023-04-10T06:08:20;6.00;99.90
2723;DHT22;1369;53.216;10.396;2023-04-10T06:10:47;6.10;99.90
2723;DHT22;1369;53.216;10.396;2023-04-10T06:13:12;6.30;99.90
2723;DHT22;1369;53.216;10.396;2023-04-10T06:15:39;6.60;99.90
2723;DHT22;1369;53.216;10.396;2023-04-10T06:18:04;6.90;99.90
2723;DHT22;1369;53.216;10.396;2023-04-10T06:20:30;7.30;99.90
2723;DHT22;1369;53.216;10.396;2023-04-10T06:22:57;7.60;99.90
2723;DHT22;1369;53.216;10.396;2023-04-10T06:25:22;7.80;99.90
2723;DHT22;1369;53.216;10.396;2023-04-10T06:27:48;8.00;99.90
2723;DHT22;1369;53.216;10.396;2023-04-10T06:30:13;8.20;99.90
2723;DHT22;1369;53.216;10.396;2023-04-10T06:32:39;8.40;99.90
2723;DHT22;1369;53.216;10.396;2023-04-10T06:35:04;8.40;99.90
2723;DHT22;1369;53.216;10.396;2023-04-10T06:37:30;8.40;99.90
2723;DHT22;1369;53.216;10.396;2023-04-10T06:40:03;8.60;99.90
2723;DHT22;1369;53.216;10.396;2023-04-10T06:42:29;8.70;99.90
2723;DHT22;1369;53.216;10.396;2023-04-10T06:44:55;8.90;99.90
2723;DHT22;1369;53.216;10.396;2023-04-10T06:47:20;9.10;99.90
2723;DHT22;1369;53.216;10.396;2023-04-10T06:49:46;9.00;99.90
2723;DHT22;1369;53.216;10.396;2023-04-10T06:52:11;9.10;99.90
2723;DHT22;1369;53.216;10.396;2023-04-10T06:54:37;9.10;99.90
2723;DHT22;1369;53.216;10.396;2023-04-10T06:57:02;9.30;99.90
2723;DHT22;1369;53.216;10.396;2023-04-10T06:59:28;9.40;99.90
2723;DHT22;1369;53.216;10.396;2023-04-10T07:01:53;9.50;99.90
2723;DHT22;1369;53.216;10.396;2023-04-10T07:04:19;9.60;99.90
2723;DHT22;1369;53.216;10.396;2023-04-10T07:06:45;9.70;99.90
2723;DHT22;1369;53.216;10.396;2023-04-10T07:09:11;9.80;99.90
2723;DHT22;1369;53.216;10.396;2023-04-10T07:11:36;9.90;99.90
2723;DHT22;1369;53.216;10.396;2023-04-10T07:14:01;10.00;99.90
2723;DHT22;1369;53.216;10.396;2023-04-10T07:16:27;10.20;99.90
2723;DHT22;1369;53.216;10.396;2023-04-10T07:18:53;10.50;99.90
2723;DHT22;1369;53.216;10.396;2023-04-10T07:21:19;10.80;99.90
2723;DHT22;1369;53.216;10.396;2023-04-10T07:23:44;11.30;99.90
2723;DHT22;1369;53.216;10.396;2023-04-10T07:26:10;12.20;99.90
2723;DHT22;1369;53.216;10.396;2023-04-10T07:28:35;13.00;99.90
2723;DHT22;1369;53.216;10.396;2023-04-10T07:31:02;13.80;99.90
2723;DHT22;1369;53.216;10.396;2023-04-10T07:33:28;14.30;99.90
2723;DHT22;1369;53.216;10.396;2023-04-10T07:35:53;14.60;99.90
2723;DHT22;1369;53.216;10.396;2023-04-10T07:38:19;15.20;99.90
2723;DHT22;1369;53.216;10.396;2023-04-10T07:40:45;16.00;99.90
2723;DHT22;1369;53.216;10.396;2023-04-10T07:43:10;16.90;99.90
2723;DHT22;1369;53.216;10.396;2023-04-10T07:45:36;17.80;99.90
2723;DHT22;1369;53.216;10.396;2023-04-10T07:48:02;18.50;99.90
2723;DHT22;1369;53.216;10.396;2023-04-10T07:50:28;18.80;99.90
2723;DHT22;1369;53.216;10.396;2023-04-10T07:52:55;18.70;99.90
2723;DHT22;1369;53.216;10.396;2023-04-10T07:55:20;18.70;99.90
2723;DHT22;1369;53.216;10.396;2023-04-10T07:57:46;19.00;99.90
2723;DHT22;1369;53.216;10.396;2023-04-10T08:00:12;19.10;99.90
2723;DHT22;1369;53.216;10.396;2023-04-10T08:02:38;19.10;99.90
2723;DHT22;1369;53.216;10.396;2023-04-10T08:05:05;19.20;99.90
2723;DHT22;1369;53.216;10.396;2023-04-10T08:07:31;19.80;99.90
2723;DHT22;1369;53.216;10.396;2023-04-10T08:09:56;19.90;99.90
2723;DHT22;1369;53.216;10.396;2023-04-10T08:12:22;20.50;99.90
2723;DHT22;1369;53.216;10.396;2023-04-10T08:14:47;21.20;99.90
2723;DHT22;1369;53.216;10.396;2023-04-10T08:17:13;21.80;99.90
2723;DHT22;1369;53.216;10.396;2023-04-10T08:19:40;22.20;99.90
2723;DHT22;1369;53.216;10.396;2023-04-10T08:22:06;22.40;99.90
2723;DHT22;1369;53.216;10.396;2023-04-10T08:24:32;22.60;99.90
2723;DHT22;1369;53.216;10.396;2023-04-10T08:26:57;23.20;99.90
2723;DHT22;1369;53.216;10.396;2023-04-10T08:29:23;23.40;99.90
2723;DHT22;1369;53.216;10.396;2023-04-10T08:31:48;23.60;99.90
2723;DHT22;1369;53.216;10.396;2023-04-10T08:34:14;23.20;99.40
2723;DHT22;1369;53.216;10.396;2023-04-10T08:36:39;22.40;97.90
2723;DHT22;1369;53.216;10.396;2023-04-10T08:39:05;22.40;99.10
2723;DHT22;1369;53.216;10.396;2023-04-10T08:41:30;22.50;98.80
2723;DHT22;1369;53.216;10.396;2023-04-10T08:43:56;22.10;99.30
2723;DHT22;1369;53.216;10.396;2023-04-10T08:46:23;22.10;97.80
2723;DHT22;1369;53.216;10.396;2023-04-10T08:49:00;21.70;97.50
2723;DHT22;1369;53.216;10.396;2023-04-10T08:51:31;21.40;97.40
2723;DHT22;1369;53.216;10.396;2023-04-10T08:54:09;21.70;99.00
2723;DHT22;1369;53.216;10.396;2023-04-10T08:56:40;21.10;96.70
2723;DHT22;1369;53.216;10.396;2023-04-10T08:59:07;21.00;96.50
2723;DHT22;1369;53.216;10.396;2023-04-10T09:01:33;21.30;99.30
2723;DHT22;1369;53.216;10.396;2023-04-10T09:04:00;21.70;99.90
2723;DHT22;1369;53.216;10.396;2023-04-10T09:06:25;21.70;99.00
2723;DHT22;1369;53.216;10.396;2023-04-10T09:08:51;21.60;98.60
2723;DHT22;1369;53.216;10.396;2023-04-10T09:11:16;21.70;99.90
2723;DHT22;1369;53.216;10.396;2023-04-10T09:13:43;21.60;98.50
2723;DHT22;1369;53.216;10.396;2023-04-10T09:16:09;21.60;98.40
2723;DHT22;1369;53.216;10.396;2023-04-10T09:18:45;21.30;98.50
2723;DHT22;1369;53.216;10.396;2023-04-10T09:21:16;21.40;98.90
2723;DHT22;1369;53.216;10.396;2023-04-10T09:23:43;21.50;98.80
2723;DHT22;1369;53.216;10.396;2023-04-10T09:26:23;21.60;96.80
2723;DHT22;1369;53.216;10.396;2023-04-10T09:28:56;21.60;97.00
2723;DHT22;1369;53.216;10.396;2023-04-10T09:31:32;21.40;98.30
2723;DHT22;1369;53.216;10.396;2023-04-10T09:34:14;20.70;95.00
2723;DHT22;1369;53.216;10.396;2023-04-10T09:36:42;20.60;96.50
2723;DHT22;1369;53.216;10.396;2023-04-10T09:39:09;20.40;95.60
2723;DHT22;1369;53.216;10.396;2023-04-10T09:41:50;20.50;95.60
2723;DHT22;1369;53.216;10.396;2023-04-10T09:44:18;20.10;94.80
2723;DHT22;1369;53.216;10.396;2023-04-10T09:46:44;20.10;97.10
2723;DHT22;1369;53.216;10.396;2023-04-10T09:49:10;20.20;95.20
2723;DHT22;1369;53.216;10.396;2023-04-10T09:51:36;20.40;95.30
2723;DHT22;1369;53.216;10.396;2023-04-10T09:54:03;20.20;94.60
2723;DHT22;1369;53.216;10.396;2023-04-10T09:56:29;19.90;95.10
2723;DHT22;1369;53.216;10.396;2023-04-10T09:58:59;19.70;94.00
2723;DHT22;1369;53.216;10.396;2023-04-10T10:01:27;19.70;94.50
2723;DHT22;1369;53.216;10.396;2023-04-10T10:03:54;19.90;96.60
2723;DHT22;1369;53.216;10.396;2023-04-10T10:06:21;20.10;95.90
2723;DHT22;1369;53.216;10.396;2023-04-10T10:08:48;20.30;96.60
2723;DHT22;1369;53.216;10.396;2023-04-10T10:11:18;20.60;97.70
2723;DHT22;1369;53.216;10.396;2023-04-10T10:13:51;20.80;95.10
2723;DHT22;1369;53.216;10.396;2023-04-10T10:16:31;20.90;95.30
2723;DHT22;1369;53.216;10.396;2023-04-10T10:21:46;21.00;94.70
2723;DHT22;1369;53.216;10.396;2023-04-10T10:24:12;20.80;95.50
2723;DHT22;1369;53.216;10.396;2023-04-10T10:26:38;20.40;94.30
2723;DHT22;1369;53.216;10.396;2023-04-10T10:29:06;20.50;94.50
2723;DHT22;1369;53.216;10.396;2023-04-10T10:31:35;19.50;92.50
2723;DHT22;1369;53.216;10.396;2023-04-10T10:34:02;19.60;93.50
2723;DHT22;1369;53.216;10.396;2023-04-10T10:36:34;19.50;93.70
2723;DHT22;1369;53.216;10.396;2023-04-10T10:41:48;19.30;93.90
2723;DHT22;1369;53.216;10.396;2023-04-10T10:47:31;19.00;93.10
2723;DHT22;1369;53.216;10.396;2023-04-10T10:49:59;18.70;92.20
2723;DHT22;1369;53.216;10.396;2023-04-10T10:52:50;18.30;92.10
2723;DHT22;1369;53.216;10.396;2023-04-10T10:57:47;18.50;91.70
2723;DHT22;1369;53.216;10.396;2023-04-10T11:00:17;18.40;91.60
2723;DHT22;1369;53.216;10.396;2023-04-10T11:02:43;18.60;93.90
2723;DHT22;1369;53.216;10.396;2023-04-10T11:05:09;18.70;92.30
2723;DHT22;1369;53.216;10.396;2023-04-10T11:10:59;18.50;92.50
2723;DHT22;1369;53.216;10.396;2023-04-10T11:13:25;18.70;93.20
2723;DHT22;1369;53.216;10.396;2023-04-10T11:15:51;18.70;91.00
2723;DHT22;1369;53.216;10.396;2023-04-10T11:18:17;18.50;90.00
2723;DHT22;1369;53.216;10.396;2023-04-10T11:21:07;18.50;90.20
2723;DHT22;1369;53.216;10.396;2023-04-10T11:23:33;18.50;90.40
2723;DHT22;1369;53.216;10.396;2023-04-10T11:25:58;18.70;90.40
2723;DHT22;1369;53.216;10.396;2023-04-10T11:31:12;18.80;89.90
2723;DHT22;1369;53.216;10.396;2023-04-10T11:33:38;18.80;90.10
2723;DHT22;1369;53.216;10.396;2023-04-10T11:36:04;19.00;90.60
2723;DHT22;1369;53.216;10.396;2023-04-10T11:38:30;19.00;88.00
2723;DHT22;1369;53.216;10.396;2023-04-10T11:40:59;19.00;88.20
2723;DHT22;1369;53.216;10.396;2023-04-10T11:43:26;18.90;89.60
2723;DHT22;1369;53.216;10.396;2023-04-10T11:46:18;18.70;85.30
2723;DHT22;1369;53.216;10.396;2023-04-10T11:48:44;18.60;87.10
2723;DHT22;1369;53.216;10.396;2023-04-10T11:51:11;18.60;86.50
2723;DHT22;1369;53.216;10.396;2023-04-10T11:53:40;18.70;87.70
2723;DHT22;1369;53.216;10.396;2023-04-10T11:56:18;18.70;88.00
2723;DHT22;1369;53.216;10.396;2023-04-10T11:58:44;18.40;86.70
2723;DHT22;1369;53.216;10.396;2023-04-10T12:01:11;18.70;89.60
2723;DHT22;1369;53.216;10.396;2023-04-10T12:03:41;18.70;88.90
2723;DHT22;1369;53.216;10.396;2023-04-10T12:06:11;18.90;90.80
2723;DHT22;1369;53.216;10.396;2023-04-10T12:08:40;19.00;89.00
2723;DHT22;1369;53.216;10.396;2023-04-10T12:11:06;19.10;87.00
2723;DHT22;1369;53.216;10.396;2023-04-10T12:13:32;19.00;85.50
2723;DHT22;1369;53.216;10.396;2023-04-10T12:15:59;18.80;86.00
2723;DHT22;1369;53.216;10.396;2023-04-10T12:18:26;18.90;89.80
2723;DHT22;1369;53.216;10.396;2023-04-10T12:20:53;19.10;90.20
2723;DHT22;1369;53.216;10.396;2023-04-10T12:23:24;19.20;87.70
2723;DHT22;1369;53.216;10.396;2023-04-10T12:25:51;19.10;87.10
2723;DHT22;1369;53.216;10.396;2023-04-10T12:28:18;19.10;84.80
2723;DHT22;1369;53.216;10.396;2023-04-10T12:30:52;19.00;85.60
2723;DHT22;1369;53.216;10.396;2023-04-10T12:33:24;18.90;84.70
2723;DHT22;1369;53.216;10.396;2023-04-10T12:35:51;18.90;85.60
2723;DHT22;1369;53.216;10.396;2023-04-10T12:38:40;18.90;87.10
2723;DHT22;1369;53.216;10.396;2023-04-10T12:41:07;18.90;86.50
2723;DHT22;1369;53.216;10.396;2023-04-10T12:43:38;19.00;87.20
2723;DHT22;1369;53.216;10.396;2023-04-10T12:46:05;19.10;87.40
2723;DHT22;1369;53.216;10.396;2023-04-10T12:48:31;19.10;88.50
2723;DHT22;1369;53.216;10.396;2023-04-10T12:50:58;18.80;86.50
2723;DHT22;1369;53.216;10.396;2023-04-10T12:53:24;18.90;88.30
2723;DHT22;1369;53.216;10.396;2023-04-10T12:56:03;18.50;85.90
2723;DHT22;1369;53.216;10.396;2023-04-10T12:58:29;18.60;88.10
2723;DHT22;1369;53.216;10.396;2023-04-10T13:01:06;18.60;90.00
2723;DHT22;1369;53.216;10.396;2023-04-10T13:03:33;18.70;89.10
2723;DHT22;1369;53.216;10.396;2023-04-10T13:06:00;18.70;88.70
2723;DHT22;1369;53.216;10.396;2023-04-10T13:08:26;18.80;89.90
2723;DHT22;1369;53.216;10.396;2023-04-10T13:10:52;18.80;90.60
2723;DHT22;1369;53.216;10.396;2023-04-10T13:13:18;18.80;89.10
2723;DHT22;1369;53.216;10.396;2023-04-10T13:15:44;18.90;90.20
2723;DHT22;1369;53.216;10.396;2023-04-10T13:18:09;18.90;89.10
2723;DHT22;1369;53.216;10.396;2023-04-10T13:20:41;19.00;90.60
2723;DHT22;1369;53.216;10.396;2023-04-10T13:23:07;18.90;90.40
2723;DHT22;1369;53.216;10.396;2023-04-10T13:25:36;19.10;90.60
2723;DHT22;1369;53.216;10.396;2023-04-10T13:28:04;19.00;90.60
2723;DHT22;1369;53.216;10.396;2023-04-10T13:30:34;19.00;90.40
2723;DHT22;1369;53.216;10.396;2023-04-10T13:33:00;19.00;90.20
2723;DHT22;1369;53.216;10.396;2023-04-10T13:35:25;19.00;90.00
2723;DHT22;1369;53.216;10.396;2023-04-10T13:37:51;19.00;90.60
2723;DHT22;1369;53.216;10.396;2023-04-10T13:40:20;19.10;91.30
2723;DHT22;1369;53.216;10.396;2023-04-10T13:42:46;19.20;91.20
2723;DHT22;1369;53.216;10.396;2023-04-10T13:45:13;19.00;91.20
2723;DHT22;1369;53.216;10.396;2023-04-10T13:47:38;19.00;91.20
2723;DHT22;1369;53.216;10.396;2023-04-10T13:50:04;18.90;91.10
2723;DHT22;1369;53.216;10.396;2023-04-10T13:52:30;18.80;91.00
2723;DHT22;1369;53.216;10.396;2023-04-10T13:54:55;18.70;91.30
2723;DHT22;1369;53.216;10.396;2023-04-10T13:57:21;18.70;92.10
2723;DHT22;1369;53.216;10.396;2023-04-10T13:59:46;18.70;91.90
2723;DHT22;1369;53.216;10.396;2023-04-10T14:02:12;18.70;91.70
2723;DHT22;1369;53.216;10.396;2023-04-10T14:04:37;18.70;91.20
2723;DHT22;1369;53.216;10.396;2023-04-10T14:07:03;18.60;91.10
2723;DHT22;1369;53.216;10.396;2023-04-10T14:09:28;18.60;91.20
2723;DHT22;1369;53.216;10.396;2023-04-10T14:11:54;18.60;91.40
2723;DHT22;1369;53.216;10.396;2023-04-10T14:14:20;18.60;90.70
2723;DHT22;1369;53.216;10.396;2023-04-10T14:16:48;18.70;91.50
2723;DHT22;1369;53.216;10.396;2023-04-10T14:19:13;18.70;91.40
2723;DHT22;1369;53.216;10.396;2023-04-10T14:21:39;18.70;92.00
2723;DHT22;1369;53.216;10.396;2023-04-10T14:24:08;18.70;92.40
2723;DHT22;1369;53.216;10.396;2023-04-10T14:26:33;18.60;92.30
2723;DHT22;1369;53.216;10.396;2023-04-10T14:28:59;18.60;92.60
2723;DHT22;1369;53.216;10.396;2023-04-10T14:31:24;18.60;92.20
2723;DHT22;1369;53.216;10.396;2023-04-10T14:33:50;18.40;91.20
2723;DHT22;1369;53.216;10.396;2023-04-10T14:36:15;18.30;92.10
2723;DHT22;1369;53.216;10.396;2023-04-10T14:38:41;18.40;92.80
2723;DHT22;1369;53.216;10.396;2023-04-10T14:41:06;18.40;92.00
2723;DHT22;1369;53.216;10.396;2023-04-10T14:43:32;18.30;91.50
2723;DHT22;1369;53.216;10.396;2023-04-10T14:45:57;18.30;92.00
2723;DHT22;1369;53.216;10.396;2023-04-10T14:48:23;18.40;91.80
2723;DHT22;1369;53.216;10.396;2023-04-10T14:50:49;18.40;91.30
2723;DHT22;1369;53.216;10.396;2023-04-10T14:53:14;18.40;90.60
2723;DHT22;1369;53.216;10.396;2023-04-10T14:55:40;18.10;90.40
2723;DHT22;1369;53.216;10.396;2023-04-10T14:58:06;18.20;91.00
2723;DHT22;1369;53.216;10.396;2023-04-10T15:00:33;18.20;90.80
2723;DHT22;1369;53.216;10.396;2023-04-10T15:02:59;18.10;90.30
2723;DHT22;1369;53.216;10.396;2023-04-10T15:05:25;18.10;90.40
2723;DHT22;1369;53.216;10.396;2023-04-10T15:07:51;18.20;90.70
2723;DHT22;1369;53.216;10.396;2023-04-10T15:10:17;18.20;90.60
2723;DHT22;1369;53.216;10.396;2023-04-10T15:12:42;18.10;90.30
2723;DHT22;1369;53.216;10.396;2023-04-10T15:15:08;18.10;90.60
2723;DHT22;1369;53.216;10.396;2023-04-10T15:17:34;18.00;90.50
2723;DHT22;1369;53.216;10.396;2023-04-10T15:20:00;18.10;90.90
2723;DHT22;1369;53.216;10.396;2023-04-10T15:22:25;18.00;90.40
2723;DHT22;1369;53.216;10.396;2023-04-10T15:24:51;17.90;90.30
2723;DHT22;1369;53.216;10.396;2023-04-10T15:27:20;17.80;91.20
2723;DHT22;1369;53.216;10.396;2023-04-10T15:29:45;17.90;91.70
2723;DHT22;1369;53.216;10.396;2023-04-10T15:32:11;17.80;92.30
2723;DHT22;1369;53.216;10.396;2023-04-10T15:34:36;17.90;93.30
2723;DHT22;1369;53.216;10.396;2023-04-10T15:37:02;17.90;93.40
2723;DHT22;1369;53.216;10.396;2023-04-10T15:39:28;17.90;93.10
2723;DHT22;1369;53.216;10.396;2023-04-10T15:41:55;17.80;93.10
2723;DHT22;1369;53.216;10.396;2023-04-10T15:44:22;17.80;93.50
2723;DHT22;1369;53.216;10.396;2023-04-10T15:46:48;17.80;93.50
2723;DHT22;1369;53.216;10.396;2023-04-10T15:49:14;17.80;93.40
2723;DHT22;1369;53.216;10.396;2023-04-10T15:51:40;17.70;93.70
2723;DHT22;1369;53.216;10.396;2023-04-10T15:54:06;17.60;93.20
2723;DHT22;1369;53.216;10.396;2023-04-10T15:56:33;17.50;93.40
2723;DHT22;1369;53.216;10.396;2023-04-10T15:58:58;17.60;93.40
2723;DHT22;1369;53.216;10.396;2023-04-10T16:01:24;17.50;93.20
2723;DHT22;1369;53.216;10.396;2023-04-10T16:03:50;17.60;93.80
2723;DHT22;1369;53.216;10.396;2023-04-10T16:06:15;17.60;93.70
2723;DHT22;1369;53.216;10.396;2023-04-10T16:08:41;17.60;93.50
2723;DHT22;1369;53.216;10.396;2023-04-10T16:11:06;17.50;93.30
2723;DHT22;1369;53.216;10.396;2023-04-10T16:13:32;17.60;93.70
2723;DHT22;1369;53.216;10.396;2023-04-10T16:15:57;17.70;93.70